aviador You're here:

KAOO Decoded Metar

ALTOONA in PA, USA
Report Time2017-11-25 04:53:00
UTC Time2017-11-25 05:37:45
Flight Rules vfr VFR
Wind210° at 03 kt
W.Decomp.*RWY 21: 3.0 kt HW 0.5 kt RCW
RWY 30: 0.5 kt HW 3 kt LCW
W.Rank210° ranks 5
Current wind is below 210° avg. (6.8)
Visibility9999 m
Phenomena:N/A
Clouds:N/A
Expected CloudBase > 4,400 ft AGL from Temp-Dew spread
CeilingNone
Temp06°C (ISA -6)
Dew Point-5°C (46% RH)
AAT2.3°C
QNH1010 hPa
Density Alt935 ft
Elevation1,493 ft
Report Wrong Elevation
Raw Report
KAOO 250453Z AUTO 21003KT 10SM CLR 06/M05 A2982 RMK AO2 SLP103
T00611050 401221017=

Extra information for KAOO:More info

Metar Taf Metar & Taf Last 4 Metars F.Rules Stats Wind Profile Meteogram Temp Stats Airport Information Weather charts Add Link Nearby VenuesMetar ALERT Operation Metar Decoded Social comments

AIRNAV info for KAOO